sensor_id;sensor_type;location;lat;lon;timestamp;P1;durP1;ratioP1;P2;durP2;ratioP2
59770;SDS011;45649;53.014;6.600;2023-03-13T00:01:30;26.43;;;6.30;;
59770;SDS011;45649;53.014;6.600;2023-03-13T00:03:56;34.53;;;7.27;;
59770;SDS011;45649;53.014;6.600;2023-03-13T00:06:23;33.77;;;7.57;;
59770;SDS011;45649;53.014;6.600;2023-03-13T00:08:50;38.67;;;7.40;;
59770;SDS011;45649;53.014;6.600;2023-03-13T00:11:16;29.93;;;6.77;;
59770;SDS011;45649;53.014;6.600;2023-03-13T00:13:42;26.10;;;7.27;;
59770;SDS011;45649;53.014;6.600;2023-03-13T00:16:10;37.97;;;7.67;;
59770;SDS011;45649;53.014;6.600;2023-03-13T00:18:36;30.53;;;7.23;;
59770;SDS011;45649;53.014;6.600;2023-03-13T00:21:06;37.53;;;7.47;;
59770;SDS011;45649;53.014;6.600;2023-03-13T00:23:33;37.30;;;8.00;;
59770;SDS011;45649;53.014;6.600;2023-03-13T00:26:01;38.47;;;7.00;;
59770;SDS011;45649;53.014;6.600;2023-03-13T00:28:28;37.87;;;7.43;;
59770;SDS011;45649;53.014;6.600;2023-03-13T00:31:04;35.88;;;8.77;;
59770;SDS011;45649;53.014;6.600;2023-03-13T00:33:31;37.83;;;7.27;;
59770;SDS011;45649;53.014;6.600;2023-03-13T00:35:59;30.70;;;7.20;;
59770;SDS011;45649;53.014;6.600;2023-03-13T00:38:26;31.90;;;6.83;;
59770;SDS011;45649;53.014;6.600;2023-03-13T00:41:02;35.87;;;7.20;;
59770;SDS011;45649;53.014;6.600;2023-03-13T00:43:29;38.47;;;8.13;;
59770;SDS011;45649;53.014;6.600;2023-03-13T00:45:55;34.70;;;7.90;;
59770;SDS011;45649;53.014;6.600;2023-03-13T00:48:21;36.63;;;6.93;;
59770;SDS011;45649;53.014;6.600;2023-03-13T00:50:47;34.57;;;6.77;;
59770;SDS011;45649;53.014;6.600;2023-03-13T00:53:14;35.27;;;7.27;;
59770;SDS011;45649;53.014;6.600;2023-03-13T00:55:50;33.30;;;7.63;;
59770;SDS011;45649;53.014;6.600;2023-03-13T00:58:16;29.87;;;6.87;;
59770;SDS011;45649;53.014;6.600;2023-03-13T01:00:42;29.10;;;6.33;;
59770;SDS011;45649;53.014;6.600;2023-03-13T01:03:08;35.03;;;7.90;;
59770;SDS011;45649;53.014;6.600;2023-03-13T01:05:34;32.40;;;7.03;;
59770;SDS011;45649;53.014;6.600;2023-03-13T01:08:00;30.70;;;6.90;;
59770;SDS011;45649;53.014;6.600;2023-03-13T01:10:26;32.83;;;6.57;;
59770;SDS011;45649;53.014;6.600;2023-03-13T01:12:52;33.80;;;6.97;;
59770;SDS011;45649;53.014;6.600;2023-03-13T01:15:18;28.30;;;7.33;;
59770;SDS011;45649;53.014;6.600;2023-03-13T01:17:45;31.27;;;7.20;;
59770;SDS011;45649;53.014;6.600;2023-03-13T01:20:11;30.93;;;6.93;;
59770;SDS011;45649;53.014;6.600;2023-03-13T01:22:37;26.83;;;6.73;;
59770;SDS011;45649;53.014;6.600;2023-03-13T01:25:03;32.83;;;7.10;;
59770;SDS011;45649;53.014;6.600;2023-03-13T01:27:30;25.27;;;7.03;;
59770;SDS011;45649;53.014;6.600;2023-03-13T01:29:56;27.87;;;7.10;;
59770;SDS011;45649;53.014;6.600;2023-03-13T01:32:22;35.57;;;6.90;;
59770;SDS011;45649;53.014;6.600;2023-03-13T01:34:48;27.37;;;6.77;;
59770;SDS011;45649;53.014;6.600;2023-03-13T01:37:14;28.53;;;6.63;;
59770;SDS011;45649;53.014;6.600;2023-03-13T01:39:40;30.37;;;6.57;;
59770;SDS011;45649;53.014;6.600;2023-03-13T01:42:06;32.37;;;6.77;;
59770;SDS011;45649;53.014;6.600;2023-03-13T01:47:18;27.50;;;6.83;;
59770;SDS011;45649;53.014;6.600;2023-03-13T01:49:44;22.57;;;6.40;;
59770;SDS011;45649;53.014;6.600;2023-03-13T01:54:49;28.60;;;7.03;;
59770;SDS011;45649;53.014;6.600;2023-03-13T02:02:11;27.00;;;6.80;;
59770;SDS011;45649;53.014;6.600;2023-03-13T02:04:38;33.73;;;7.33;;
59770;SDS011;45649;53.014;6.600;2023-03-13T02:07:08;32.40;;;6.93;;
59770;SDS011;45649;53.014;6.600;2023-03-13T02:09:35;25.93;;;7.07;;
59770;SDS011;45649;53.014;6.600;2023-03-13T02:12:08;29.60;;;7.30;;
59770;SDS011;45649;53.014;6.600;2023-03-13T02:14:36;27.47;;;6.57;;
59770;SDS011;45649;53.014;6.600;2023-03-13T02:17:03;32.37;;;7.47;;
59770;SDS011;45649;53.014;6.600;2023-03-13T02:19:51;30.93;;;7.50;;
59770;SDS011;45649;53.014;6.600;2023-03-13T02:27:45;27.20;;;7.77;;
59770;SDS011;45649;53.014;6.600;2023-03-13T02:30:12;29.10;;;7.17;;
59770;SDS011;45649;53.014;6.600;2023-03-13T02:32:39;28.03;;;7.50;;
59770;SDS011;45649;53.014;6.600;2023-03-13T02:35:06;21.53;;;6.80;;
59770;SDS011;45649;53.014;6.600;2023-03-13T02:37:32;23.50;;;7.37;;
59770;SDS011;45649;53.014;6.600;2023-03-13T02:40:00;22.53;;;7.00;;
59770;SDS011;45649;53.014;6.600;2023-03-13T02:42:28;18.37;;;5.80;;
59770;SDS011;45649;53.014;6.600;2023-03-13T02:44:54;18.93;;;6.33;;
59770;SDS011;45649;53.014;6.600;2023-03-13T02:47:20;17.53;;;6.00;;
59770;SDS011;45649;53.014;6.600;2023-03-13T02:49:47;21.33;;;6.50;;
59770;SDS011;45649;53.014;6.600;2023-03-13T02:54:40;15.53;;;5.70;;
59770;SDS011;45649;53.014;6.600;2023-03-13T02:57:09;18.83;;;6.00;;
59770;SDS011;45649;53.014;6.600;2023-03-13T02:59:35;14.30;;;6.20;;
59770;SDS011;45649;53.014;6.600;2023-03-13T03:02:01;15.73;;;5.73;;
59770;SDS011;45649;53.014;6.600;2023-03-13T03:04:28;11.63;;;5.73;;
59770;SDS011;45649;53.014;6.600;2023-03-13T03:06:54;11.00;;;5.27;;
59770;SDS011;45649;53.014;6.600;2023-03-13T03:09:20;10.43;;;5.47;;
59770;SDS011;45649;53.014;6.600;2023-03-13T03:11:47;13.27;;;5.70;;
59770;SDS011;45649;53.014;6.600;2023-03-13T03:14:13;9.80;;;5.20;;
59770;SDS011;45649;53.014;6.600;2023-03-13T03:16:39;9.73;;;5.10;;
59770;SDS011;45649;53.014;6.600;2023-03-13T03:19:06;11.47;;;5.43;;
59770;SDS011;45649;53.014;6.600;2023-03-13T03:21:32;10.97;;;5.03;;
59770;SDS011;45649;53.014;6.600;2023-03-13T03:23:58;8.77;;;5.20;;
59770;SDS011;45649;53.014;6.600;2023-03-13T03:26:24;11.77;;;5.00;;
59770;SDS011;45649;53.014;6.600;2023-03-13T03:28:50;8.33;;;5.10;;
59770;SDS011;45649;53.014;6.600;2023-03-13T03:31:16;8.40;;;5.17;;
59770;SDS011;45649;53.014;6.600;2023-03-13T03:33:43;8.70;;;5.03;;
59770;SDS011;45649;53.014;6.600;2023-03-13T03:36:14;8.47;;;5.00;;
59770;SDS011;45649;53.014;6.600;2023-03-13T03:38:41;11.27;;;5.00;;
59770;SDS011;45649;53.014;6.600;2023-03-13T03:41:07;6.30;;;4.70;;
59770;SDS011;45649;53.014;6.600;2023-03-13T03:43:34;10.40;;;4.97;;
59770;SDS011;45649;53.014;6.600;2023-03-13T03:46:00;7.40;;;5.13;;
59770;SDS011;45649;53.014;6.600;2023-03-13T03:48:26;7.30;;;5.00;;
59770;SDS011;45649;53.014;6.600;2023-03-13T03:50:52;8.07;;;5.07;;
59770;SDS011;45649;53.014;6.600;2023-03-13T03:53:18;8.87;;;5.33;;
59770;SDS011;45649;53.014;6.600;2023-03-13T03:55:44;8.13;;;5.20;;
59770;SDS011;45649;53.014;6.600;2023-03-13T03:58:11;8.67;;;5.67;;
59770;SDS011;45649;53.014;6.600;2023-03-13T04:00:37;9.10;;;5.67;;
59770;SDS011;45649;53.014;6.600;2023-03-13T04:03:03;8.10;;;5.60;;
59770;SDS011;45649;53.014;6.600;2023-03-13T04:05:29;9.57;;;5.73;;
59770;SDS011;45649;53.014;6.600;2023-03-13T04:07:55;9.00;;;5.37;;
59770;SDS011;45649;53.014;6.600;2023-03-13T04:10:21;8.53;;;6.13;;
59770;SDS011;45649;53.014;6.600;2023-03-13T04:12:47;9.60;;;6.00;;
59770;SDS011;45649;53.014;6.600;2023-03-13T04:15:13;10.37;;;6.13;;
59770;SDS011;45649;53.014;6.600;2023-03-13T04:17:39;6.57;;;5.97;;
59770;SDS011;45649;53.014;6.600;2023-03-13T04:20:05;8.47;;;5.73;;
59770;SDS011;45649;53.014;6.600;2023-03-13T04:22:32;6.90;;;6.20;;
59770;SDS011;45649;53.014;6.600;2023-03-13T04:24:58;7.97;;;6.10;;
59770;SDS011;45649;53.014;6.600;2023-03-13T04:27:25;7.63;;;6.13;;
59770;SDS011;45649;53.014;6.600;2023-03-13T04:29:51;8.87;;;6.70;;
59770;SDS011;45649;53.014;6.600;2023-03-13T04:32:17;6.97;;;6.27;;
59770;SDS011;45649;53.014;6.600;2023-03-13T04:34:43;8.20;;;6.50;;
59770;SDS011;45649;53.014;6.600;2023-03-13T04:37:09;7.53;;;6.33;;
59770;SDS011;45649;53.014;6.600;2023-03-13T04:39:35;7.93;;;6.93;;
59770;SDS011;45649;53.014;6.600;2023-03-13T04:42:01;10.47;;;7.77;;
59770;SDS011;45649;53.014;6.600;2023-03-13T04:44:27;8.40;;;7.53;;
59770;SDS011;45649;53.014;6.600;2023-03-13T04:46:53;10.53;;;8.00;;
59770;SDS011;45649;53.014;6.600;2023-03-13T04:49:19;13.13;;;9.33;;
59770;SDS011;45649;53.014;6.600;2023-03-13T04:51:45;11.87;;;9.33;;
59770;SDS011;45649;53.014;6.600;2023-03-13T04:54:11;10.77;;;9.33;;
59770;SDS011;45649;53.014;6.600;2023-03-13T04:56:38;12.30;;;9.90;;
59770;SDS011;45649;53.014;6.600;2023-03-13T04:59:04;12.03;;;9.13;;
59770;SDS011;45649;53.014;6.600;2023-03-13T05:01:30;13.47;;;9.83;;
59770;SDS011;45649;53.014;6.600;2023-03-13T05:03:56;13.40;;;10.67;;
59770;SDS011;45649;53.014;6.600;2023-03-13T05:06:22;13.47;;;10.33;;
59770;SDS011;45649;53.014;6.600;2023-03-13T05:08:48;14.27;;;10.23;;
59770;SDS011;45649;53.014;6.600;2023-03-13T05:11:14;11.90;;;10.30;;
59770;SDS011;45649;53.014;6.600;2023-03-13T05:13:40;15.77;;;10.50;;
59770;SDS011;45649;53.014;6.600;2023-03-13T05:16:07;12.20;;;10.23;;
59770;SDS011;45649;53.014;6.600;2023-03-13T05:18:33;14.27;;;11.50;;
59770;SDS011;45649;53.014;6.600;2023-03-13T05:21:00;13.60;;;11.07;;
59770;SDS011;45649;53.014;6.600;2023-03-13T05:23:26;17.23;;;12.77;;
59770;SDS011;45649;53.014;6.600;2023-03-13T05:25:54;18.10;;;13.40;;
59770;SDS011;45649;53.014;6.600;2023-03-13T05:28:20;17.80;;;13.33;;
59770;SDS011;45649;53.014;6.600;2023-03-13T05:30:47;22.10;;;13.43;;
59770;SDS011;45649;53.014;6.600;2023-03-13T05:33:13;18.40;;;13.73;;
59770;SDS011;45649;53.014;6.600;2023-03-13T05:35:39;17.30;;;13.47;;
59770;SDS011;45649;53.014;6.600;2023-03-13T05:38:05;18.17;;;13.37;;
59770;SDS011;45649;53.014;6.600;2023-03-13T05:40:31;18.70;;;12.23;;
59770;SDS011;45649;53.014;6.600;2023-03-13T05:42:57;14.53;;;11.50;;
59770;SDS011;45649;53.014;6.600;2023-03-13T05:45:23;14.67;;;11.13;;
59770;SDS011;45649;53.014;6.600;2023-03-13T05:47:50;12.00;;;10.70;;
59770;SDS011;45649;53.014;6.600;2023-03-13T05:50:16;12.37;;;10.03;;
59770;SDS011;45649;53.014;6.600;2023-03-13T05:52:44;10.03;;;9.03;;
59770;SDS011;45649;53.014;6.600;2023-03-13T05:55:10;11.97;;;8.70;;
59770;SDS011;45649;53.014;6.600;2023-03-13T05:57:36;11.23;;;8.90;;
59770;SDS011;45649;53.014;6.600;2023-03-13T06:00:03;11.80;;;9.03;;
59770;SDS011;45649;53.014;6.600;2023-03-13T06:02:30;10.37;;;9.03;;
59770;SDS011;45649;53.014;6.600;2023-03-13T06:04:56;11.43;;;8.73;;
59770;SDS011;45649;53.014;6.600;2023-03-13T06:07:22;12.13;;;9.30;;
59770;SDS011;45649;53.014;6.600;2023-03-13T06:09:48;14.67;;;9.67;;
59770;SDS011;45649;53.014;6.600;2023-03-13T06:12:14;14.03;;;10.33;;
59770;SDS011;45649;53.014;6.600;2023-03-13T06:14:40;14.33;;;9.67;;
59770;SDS011;45649;53.014;6.600;2023-03-13T06:17:06;12.40;;;11.00;;
59770;SDS011;45649;53.014;6.600;2023-03-13T06:19:32;13.07;;;9.30;;
59770;SDS011;45649;53.014;6.600;2023-03-13T06:21:58;16.40;;;9.77;;
59770;SDS011;45649;53.014;6.600;2023-03-13T06:24:24;14.20;;;10.93;;
59770;SDS011;45649;53.014;6.600;2023-03-13T06:26:50;12.23;;;10.00;;
59770;SDS011;45649;53.014;6.600;2023-03-13T06:29:17;11.23;;;8.50;;
59770;SDS011;45649;53.014;6.600;2023-03-13T06:31:43;11.33;;;8.27;;
59770;SDS011;45649;53.014;6.600;2023-03-13T06:34:10;10.27;;;7.30;;
59770;SDS011;45649;53.014;6.600;2023-03-13T06:36:36;12.03;;;8.13;;
59770;SDS011;45649;53.014;6.600;2023-03-13T06:39:02;12.90;;;7.77;;
59770;SDS011;45649;53.014;6.600;2023-03-13T06:41:28;11.47;;;7.93;;
59770;SDS011;45649;53.014;6.600;2023-03-13T06:43:55;12.43;;;7.83;;
59770;SDS011;45649;53.014;6.600;2023-03-13T06:46:22;13.87;;;8.50;;
59770;SDS011;45649;53.014;6.600;2023-03-13T06:48:48;15.30;;;7.93;;
59770;SDS011;45649;53.014;6.600;2023-03-13T06:51:16;13.40;;;7.53;;
59770;SDS011;45649;53.014;6.600;2023-03-13T06:53:42;12.17;;;8.17;;
59770;SDS011;45649;53.014;6.600;2023-03-13T06:56:08;14.07;;;8.80;;
59770;SDS011;45649;53.014;6.600;2023-03-13T06:58:34;14.07;;;8.00;;
59770;SDS011;45649;53.014;6.600;2023-03-13T07:03:33;17.10;;;8.50;;
59770;SDS011;45649;53.014;6.600;2023-03-13T07:05:59;15.80;;;8.80;;
59770;SDS011;45649;53.014;6.600;2023-03-13T07:08:26;16.17;;;8.83;;
59770;SDS011;45649;53.014;6.600;2023-03-13T07:11:02;12.20;;;7.93;;
59770;SDS011;45649;53.014;6.600;2023-03-13T07:13:29;12.47;;;7.50;;
59770;SDS011;45649;53.014;6.600;2023-03-13T07:15:58;13.37;;;7.80;;
59770;SDS011;45649;53.014;6.600;2023-03-13T07:18:24;11.70;;;7.30;;
59770;SDS011;45649;53.014;6.600;2023-03-13T07:20:51;15.13;;;7.90;;
59770;SDS011;45649;53.014;6.600;2023-03-13T07:23:18;16.93;;;7.67;;
59770;SDS011;45649;53.014;6.600;2023-03-13T07:25:50;17.67;;;6.87;;
59770;SDS011;45649;53.014;6.600;2023-03-13T07:28:17;17.03;;;7.47;;
59770;SDS011;45649;53.014;6.600;2023-03-13T07:30:43;11.37;;;7.17;;
59770;SDS011;45649;53.014;6.600;2023-03-13T07:33:09;14.73;;;7.60;;
59770;SDS011;45649;53.014;6.600;2023-03-13T07:35:35;14.93;;;7.73;;
59770;SDS011;45649;53.014;6.600;2023-03-13T07:38:01;13.23;;;7.23;;
59770;SDS011;45649;53.014;6.600;2023-03-13T07:40:27;14.80;;;7.50;;
59770;SDS011;45649;53.014;6.600;2023-03-13T07:42:53;13.00;;;7.03;;
59770;SDS011;45649;53.014;6.600;2023-03-13T07:45:19;14.60;;;7.30;;
59770;SDS011;45649;53.014;6.600;2023-03-13T07:47:46;14.63;;;7.10;;
59770;SDS011;45649;53.014;6.600;2023-03-13T07:50:12;12.27;;;7.00;;
59770;SDS011;45649;53.014;6.600;2023-03-13T07:52:38;13.37;;;7.40;;
59770;SDS011;45649;53.014;6.600;2023-03-13T07:55:04;13.73;;;6.90;;
59770;SDS011;45649;53.014;6.600;2023-03-13T07:57:30;12.80;;;7.40;;
59770;SDS011;45649;53.014;6.600;2023-03-13T07:59:56;12.47;;;6.50;;
59770;SDS011;45649;53.014;6.600;2023-03-13T08:02:22;12.70;;;6.67;;
59770;SDS011;45649;53.014;6.600;2023-03-13T08:04:52;10.30;;;6.07;;
59770;SDS011;45649;53.014;6.600;2023-03-13T08:07:18;9.93;;;6.10;;
59770;SDS011;45649;53.014;6.600;2023-03-13T08:09:45;12.03;;;5.90;;
59770;SDS011;45649;53.014;6.600;2023-03-13T08:12:11;11.23;;;5.87;;
59770;SDS011;45649;53.014;6.600;2023-03-13T08:14:37;11.50;;;5.20;;
59770;SDS011;45649;53.014;6.600;2023-03-13T08:17:03;9.97;;;5.20;;
59770;SDS011;45649;53.014;6.600;2023-03-13T08:19:29;8.23;;;4.80;;
59770;SDS011;45649;53.014;6.600;2023-03-13T08:21:56;6.77;;;4.47;;
59770;SDS011;45649;53.014;6.600;2023-03-13T08:24:22;7.50;;;4.57;;
59770;SDS011;45649;53.014;6.600;2023-03-13T08:26:48;6.70;;;4.17;;
59770;SDS011;45649;53.014;6.600;2023-03-13T08:29:14;5.37;;;3.50;;
59770;SDS011;45649;53.014;6.600;2023-03-13T08:31:44;5.30;;;3.40;;
59770;SDS011;45649;53.014;6.600;2023-03-13T08:34:12;4.50;;;3.67;;
59770;SDS011;45649;53.014;6.600;2023-03-13T08:36:38;6.73;;;3.40;;
59770;SDS011;45649;53.014;6.600;2023-03-13T08:39:06;5.80;;;3.03;;
59770;SDS011;45649;53.014;6.600;2023-03-13T08:41:33;5.97;;;3.10;;
59770;SDS011;45649;53.014;6.600;2023-03-13T08:44:04;5.87;;;2.87;;
59770;SDS011;45649;53.014;6.600;2023-03-13T08:46:31;6.37;;;3.00;;
59770;SDS011;45649;53.014;6.600;2023-03-13T08:48:58;5.73;;;2.70;;
59770;SDS011;45649;53.014;6.600;2023-03-13T08:51:25;6.23;;;2.83;;
59770;SDS011;45649;53.014;6.600;2023-03-13T08:53:51;6.57;;;2.67;;
59770;SDS011;45649;53.014;6.600;2023-03-13T08:56:19;6.10;;;2.73;;
59770;SDS011;45649;53.014;6.600;2023-03-13T08:58:49;4.17;;;2.80;;
59770;SDS011;45649;53.014;6.600;2023-03-13T09:01:15;5.67;;;3.53;;
59770;SDS011;45649;53.014;6.600;2023-03-13T09:03:41;7.97;;;3.07;;
59770;SDS011;45649;53.014;6.600;2023-03-13T09:06:08;4.87;;;3.20;;
59770;SDS011;45649;53.014;6.600;2023-03-13T09:08:35;4.63;;;3.30;;
59770;SDS011;45649;53.014;6.600;2023-03-13T09:11:05;6.83;;;3.50;;
59770;SDS011;45649;53.014;6.600;2023-03-13T09:13:33;6.40;;;3.40;;
59770;SDS011;45649;53.014;6.600;2023-03-13T09:16:00;7.00;;;3.50;;
59770;SDS011;45649;53.014;6.600;2023-03-13T09:18:26;4.73;;;3.20;;
59770;SDS011;45649;53.014;6.600;2023-03-13T09:20:53;8.70;;;3.40;;
59770;SDS011;45649;53.014;6.600;2023-03-13T09:23:19;5.83;;;2.97;;
59770;SDS011;45649;53.014;6.600;2023-03-13T09:25:47;5.00;;;3.50;;
59770;SDS011;45649;53.014;6.600;2023-03-13T09:28:13;8.30;;;3.50;;
59770;SDS011;45649;53.014;6.600;2023-03-13T09:30:39;8.73;;;3.70;;
59770;SDS011;45649;53.014;6.600;2023-03-13T09:33:05;9.67;;;4.07;;
59770;SDS011;45649;53.014;6.600;2023-03-13T09:35:31;7.57;;;4.10;;
59770;SDS011;45649;53.014;6.600;2023-03-13T09:37:58;9.20;;;4.17;;
59770;SDS011;45649;53.014;6.600;2023-03-13T09:40:24;8.97;;;4.07;;
59770;SDS011;45649;53.014;6.600;2023-03-13T09:42:52;8.20;;;4.57;;
59770;SDS011;45649;53.014;6.600;2023-03-13T09:45:29;7.83;;;4.47;;
59770;SDS011;45649;53.014;6.600;2023-03-13T09:50:34;7.30;;;4.20;;
59770;SDS011;45649;53.014;6.600;2023-03-13T09:53:03;6.87;;;4.00;;
59770;SDS011;45649;53.014;6.600;2023-03-13T09:55:33;7.10;;;4.20;;
59770;SDS011;45649;53.014;6.600;2023-03-13T09:58:16;9.73;;;4.30;;
59770;SDS011;45649;53.014;6.600;2023-03-13T10:00:45;9.60;;;3.83;;
59770;SDS011;45649;53.014;6.600;2023-03-13T10:05:42;12.07;;;3.47;;
59770;SDS011;45649;53.014;6.600;2023-03-13T10:08:12;7.60;;;3.40;;
59770;SDS011;45649;53.014;6.600;2023-03-13T10:13:10;11.70;;;3.90;;
59770;SDS011;45649;53.014;6.600;2023-03-13T10:18:14;5.90;;;2.80;;
59770;SDS011;45649;53.014;6.600;2023-03-13T10:20:41;9.00;;;3.10;;
59770;SDS011;45649;53.014;6.600;2023-03-13T10:25:37;11.27;;;3.30;;
59770;SDS011;45649;53.014;6.600;2023-03-13T10:28:04;7.97;;;3.27;;
59770;SDS011;45649;53.014;6.600;2023-03-13T10:30:32;12.13;;;3.30;;
59770;SDS011;45649;53.014;6.600;2023-03-13T10:35:35;8.00;;;2.90;;
59770;SDS011;45649;53.014;6.600;2023-03-13T10:38:04;8.83;;;3.03;;
59770;SDS011;45649;53.014;6.600;2023-03-13T10:40:31;9.27;;;3.30;;
59770;SDS011;45649;53.014;6.600;2023-03-13T10:43:11;8.20;;;2.97;;
59770;SDS011;45649;53.014;6.600;2023-03-13T10:45:38;11.87;;;3.17;;
59770;SDS011;45649;53.014;6.600;2023-03-13T10:48:11;10.10;;;3.10;;
59770;SDS011;45649;53.014;6.600;2023-03-13T10:50:40;15.73;;;3.50;;
59770;SDS011;45649;53.014;6.600;2023-03-13T10:53:11;9.83;;;3.57;;
59770;SDS011;45649;53.014;6.600;2023-03-13T10:55:44;11.23;;;3.23;;
59770;SDS011;45649;53.014;6.600;2023-03-13T10:58:16;9.27;;;3.07;;
59770;SDS011;45649;53.014;6.600;2023-03-13T11:00:43;14.10;;;3.37;;
59770;SDS011;45649;53.014;6.600;2023-03-13T11:03:17;16.00;;;4.03;;
59770;SDS011;45649;53.014;6.600;2023-03-13T11:05:45;12.90;;;3.30;;
59770;SDS011;45649;53.014;6.600;2023-03-13T11:08:23;11.63;;;3.70;;
59770;SDS011;45649;53.014;6.600;2023-03-13T11:10:50;10.13;;;2.90;;
59770;SDS011;45649;53.014;6.600;2023-03-13T11:16:15;10.80;;;3.13;;
59770;SDS011;45649;53.014;6.600;2023-03-13T11:21:41;9.00;;;2.90;;
59770;SDS011;45649;53.014;6.600;2023-03-13T11:26:57;8.57;;;2.87;;
59770;SDS011;45649;53.014;6.600;2023-03-13T11:29:27;10.03;;;2.90;;
59770;SDS011;45649;53.014;6.600;2023-03-13T11:31:58;5.73;;;2.60;;
59770;SDS011;45649;53.014;6.600;2023-03-13T11:47:26;7.37;;;2.43;;
59770;SDS011;45649;53.014;6.600;2023-03-13T11:50:06;4.83;;;3.07;;
59770;SDS011;45649;53.014;6.600;2023-03-13T11:55:17;8.00;;;2.90;;
59770;SDS011;45649;53.014;6.600;2023-03-13T11:58:08;5.33;;;2.20;;
59770;SDS011;45649;53.014;6.600;2023-03-13T12:05:48;5.10;;;1.90;;
59770;SDS011;45649;53.014;6.600;2023-03-13T12:13:28;6.17;;;2.47;;
59770;SDS011;45649;53.014;6.600;2023-03-13T12:15:58;4.50;;;1.83;;
59770;SDS011;45649;53.014;6.600;2023-03-13T12:21:00;8.43;;;2.43;;
59770;SDS011;45649;53.014;6.600;2023-03-13T12:25:55;5.43;;;2.27;;
59770;SDS011;45649;53.014;6.600;2023-03-13T12:28:28;7.80;;;2.70;;
59770;SDS011;45649;53.014;6.600;2023-03-13T12:36:19;5.37;;;1.87;;
59770;SDS011;45649;53.014;6.600;2023-03-13T12:42:26;6.90;;;2.30;;
59770;SDS011;45649;53.014;6.600;2023-03-13T12:44:44;9.30;;;2.77;;
59770;SDS011;45649;53.014;6.600;2023-03-13T12:47:32;9.23;;;2.63;;
59770;SDS011;45649;53.014;6.600;2023-03-13T12:50:10;11.37;;;3.00;;
59770;SDS011;45649;53.014;6.600;2023-03-13T12:52:51;6.27;;;2.20;;
59770;SDS011;45649;53.014;6.600;2023-03-13T12:55:26;10.50;;;2.73;;
59770;SDS011;45649;53.014;6.600;2023-03-13T12:58:40;10.67;;;2.90;;
59770;SDS011;45649;53.014;6.600;2023-03-13T13:00:46;12.77;;;3.30;;
59770;SDS011;45649;53.014;6.600;2023-03-13T13:03:18;10.67;;;3.00;;
59770;SDS011;45649;53.014;6.600;2023-03-13T13:06:04;12.30;;;3.37;;
59770;SDS011;45649;53.014;6.600;2023-03-13T13:08:33;10.33;;;3.00;;
59770;SDS011;45649;53.014;6.600;2023-03-13T13:13:44;7.97;;;3.17;;
59770;SDS011;45649;53.014;6.600;2023-03-13T13:16:19;14.43;;;3.60;;
59770;SDS011;45649;53.014;6.600;2023-03-13T13:18:45;10.07;;;3.40;;
59770;SDS011;45649;53.014;6.600;2023-03-13T13:23:42;12.77;;;3.40;;
59770;SDS011;45649;53.014;6.600;2023-03-13T13:28:50;13.60;;;3.67;;
59770;SDS011;45649;53.014;6.600;2023-03-13T13:34:01;12.57;;;3.57;;
59770;SDS011;45649;53.014;6.600;2023-03-13T13:36:28;12.50;;;3.57;;
59770;SDS011;45649;53.014;6.600;2023-03-13T13:38:55;16.17;;;3.80;;
59770;SDS011;45649;53.014;6.600;2023-03-13T13:41:22;17.50;;;4.17;;
59770;SDS011;45649;53.014;6.600;2023-03-13T13:44:13;15.43;;;4.00;;
59770;SDS011;45649;53.014;6.600;2023-03-13T13:46:39;12.87;;;3.50;;
59770;SDS011;45649;53.014;6.600;2023-03-13T13:51:38;13.83;;;3.60;;
59770;SDS011;45649;53.014;6.600;2023-03-13T13:56:47;14.30;;;3.70;;
59770;SDS011;45649;53.014;6.600;2023-03-13T14:01:46;17.07;;;4.20;;
59770;SDS011;45649;53.014;6.600;2023-03-13T14:06:43;14.17;;;4.13;;
59770;SDS011;45649;53.014;6.600;2023-03-13T14:09:15;16.27;;;4.40;;
59770;SDS011;45649;53.014;6.600;2023-03-13T14:11:45;13.30;;;3.80;;
59770;SDS011;45649;53.014;6.600;2023-03-13T14:14:16;17.23;;;4.37;;
59770;SDS011;45649;53.014;6.600;2023-03-13T14:16:43;14.37;;;3.90;;
59770;SDS011;45649;53.014;6.600;2023-03-13T14:19:20;15.10;;;4.20;;
59770;SDS011;45649;53.014;6.600;2023-03-13T14:21:47;14.90;;;3.70;;
59770;SDS011;45649;53.014;6.600;2023-03-13T14:24:13;15.10;;;3.77;;
59770;SDS011;45649;53.014;6.600;2023-03-13T14:26:43;14.40;;;4.00;;
59770;SDS011;45649;53.014;6.600;2023-03-13T14:29:17;13.03;;;3.97;;
59770;SDS011;45649;53.014;6.600;2023-03-13T14:31:52;18.53;;;4.23;;
59770;SDS011;45649;53.014;6.600;2023-03-13T14:34:18;19.53;;;4.43;;
59770;SDS011;45649;53.014;6.600;2023-03-13T14:36:45;14.17;;;3.70;;
59770;SDS011;45649;53.014;6.600;2023-03-13T14:39:15;15.63;;;4.40;;
59770;SDS011;45649;53.014;6.600;2023-03-13T14:41:43;16.23;;;4.00;;
59770;SDS011;45649;53.014;6.600;2023-03-13T14:44:27;15.83;;;4.40;;
59770;SDS011;45649;53.014;6.600;2023-03-13T14:46:54;15.40;;;3.97;;
59770;SDS011;45649;53.014;6.600;2023-03-13T14:49:22;15.67;;;3.87;;
59770;SDS011;45649;53.014;6.600;2023-03-13T14:51:57;16.07;;;4.70;;
59770;SDS011;45649;53.014;6.600;2023-03-13T14:57:00;16.77;;;4.33;;
59770;SDS011;45649;53.014;6.600;2023-03-13T14:59:27;20.40;;;4.20;;
59770;SDS011;45649;53.014;6.600;2023-03-13T15:07:10;13.47;;;3.93;;
59770;SDS011;45649;53.014;6.600;2023-03-13T15:09:40;18.87;;;4.53;;
59770;SDS011;45649;53.014;6.600;2023-03-13T15:12:13;14.40;;;4.47;;
59770;SDS011;45649;53.014;6.600;2023-03-13T15:14:41;15.97;;;4.40;;
59770;SDS011;45649;53.014;6.600;2023-03-13T15:17:18;17.47;;;4.70;;
59770;SDS011;45649;53.014;6.600;2023-03-13T15:19:48;22.20;;;4.57;;
59770;SDS011;45649;53.014;6.600;2023-03-13T15:22:15;18.73;;;4.97;;
59770;SDS011;45649;53.014;6.600;2023-03-13T15:24:42;19.17;;;5.20;;
59770;SDS011;45649;53.014;6.600;2023-03-13T15:27:15;19.00;;;4.63;;
59770;SDS011;45649;53.014;6.600;2023-03-13T15:29:42;15.57;;;4.37;;
59770;SDS011;45649;53.014;6.600;2023-03-13T15:32:11;20.90;;;4.83;;
59770;SDS011;45649;53.014;6.600;2023-03-13T15:34:39;18.60;;;4.47;;
59770;SDS011;45649;53.014;6.600;2023-03-13T15:37:07;17.60;;;5.13;;
59770;SDS011;45649;53.014;6.600;2023-03-13T15:39:34;17.93;;;3.87;;
59770;SDS011;45649;53.014;6.600;2023-03-13T15:42:01;17.40;;;4.30;;
59770;SDS011;45649;53.014;6.600;2023-03-13T15:44:27;17.43;;;4.97;;
59770;SDS011;45649;53.014;6.600;2023-03-13T15:46:53;23.80;;;5.07;;
59770;SDS011;45649;53.014;6.600;2023-03-13T15:49:19;16.17;;;4.47;;
59770;SDS011;45649;53.014;6.600;2023-03-13T15:51:45;21.70;;;4.73;;
59770;SDS011;45649;53.014;6.600;2023-03-13T15:54:11;22.97;;;4.87;;
59770;SDS011;45649;53.014;6.600;2023-03-13T15:56:37;17.10;;;4.53;;
59770;SDS011;45649;53.014;6.600;2023-03-13T15:59:08;18.30;;;5.00;;
59770;SDS011;45649;53.014;6.600;2023-03-13T16:01:34;17.67;;;4.70;;
59770;SDS011;45649;53.014;6.600;2023-03-13T16:04:00;15.53;;;4.53;;
59770;SDS011;45649;53.014;6.600;2023-03-13T16:06:26;19.30;;;4.80;;
59770;SDS011;45649;53.014;6.600;2023-03-13T16:08:59;17.23;;;4.30;;
59770;SDS011;45649;53.014;6.600;2023-03-13T16:11:25;18.67;;;4.17;;
59770;SDS011;45649;53.014;6.600;2023-03-13T16:13:52;21.20;;;4.57;;
59770;SDS011;45649;53.014;6.600;2023-03-13T16:16:22;14.70;;;4.50;;
59770;SDS011;45649;53.014;6.600;2023-03-13T16:18:49;16.50;;;4.40;;
59770;SDS011;45649;53.014;6.600;2023-03-13T16:21:16;17.80;;;5.10;;
59770;SDS011;45649;53.014;6.600;2023-03-13T16:23:43;20.67;;;4.93;;
59770;SDS011;45649;53.014;6.600;2023-03-13T16:26:13;21.20;;;5.00;;
59770;SDS011;45649;53.014;6.600;2023-03-13T16:28:40;18.87;;;4.87;;
59770;SDS011;45649;53.014;6.600;2023-03-13T16:31:07;21.73;;;5.43;;
59770;SDS011;45649;53.014;6.600;2023-03-13T16:33:33;25.47;;;5.07;;
59770;SDS011;45649;53.014;6.600;2023-03-13T16:36:00;18.77;;;4.77;;